sensor_id;sensor_type;location;lat;lon;timestamp;pressure;altitude;pressure_sealevel;temperature;humidity
9421;BME280;4749;51.398;5.466;2023-09-12T00:02:16;101156.47;;;20.99;100.00
9421;BME280;4749;51.398;5.466;2023-09-12T00:04:43;101155.66;;;20.97;100.00
9421;BME280;4749;51.398;5.466;2023-09-12T00:07:11;101156.53;;;20.98;100.00
9421;BME280;4749;51.398;5.466;2023-09-12T00:09:38;101152.00;;;21.00;100.00
9421;BME280;4749;51.398;5.466;2023-09-12T00:12:05;101135.91;;;21.01;100.00
9421;BME280;4749;51.398;5.466;2023-09-12T00:14:33;101140.44;;;20.99;100.00
9421;BME280;4749;51.398;5.466;2023-09-12T00:17:00;101141.44;;;20.97;100.00
9421;BME280;4749;51.398;5.466;2023-09-12T00:19:27;101155.66;;;20.97;100.00
9421;BME280;4749;51.398;5.466;2023-09-12T00:21:56;101140.56;;;20.96;100.00
9421;BME280;4749;51.398;5.466;2023-09-12T00:24:23;101148.59;;;20.96;100.00
9421;BME280;4749;51.398;5.466;2023-09-12T00:26:50;101144.97;;;20.97;100.00
9421;BME280;4749;51.398;5.466;2023-09-12T00:29:17;101136.91;;;20.99;100.00
9421;BME280;4749;51.398;5.466;2023-09-12T00:31:44;101147.53;;;21.00;100.00
9421;BME280;4749;51.398;5.466;2023-09-12T00:34:16;101151.13;;;20.99;100.00
9421;BME280;4749;51.398;5.466;2023-09-12T00:36:44;101147.66;;;20.97;100.00
9421;BME280;4749;51.398;5.466;2023-09-12T00:39:11;101145.91;;;20.96;100.00
9421;BME280;4749;51.398;5.466;2023-09-12T00:41:39;101146.78;;;20.97;100.00
9421;BME280;4749;51.398;5.466;2023-09-12T00:44:06;101142.38;;;20.96;100.00
9421;BME280;4749;51.398;5.466;2023-09-12T00:46:34;101146.84;;;20.95;100.00
9421;BME280;4749;51.398;5.466;2023-09-12T00:49:05;101140.66;;;20.93;100.00
9421;BME280;4749;51.398;5.466;2023-09-12T00:51:34;101136.44;;;20.88;100.00
9421;BME280;4749;51.398;5.466;2023-09-12T00:54:02;101132.97;;;20.84;100.00
9421;BME280;4749;51.398;5.466;2023-09-12T00:56:30;101133.09;;;20.81;100.00
9421;BME280;4749;51.398;5.466;2023-09-12T00:58:57;101150.16;;;20.77;100.00
9421;BME280;4749;51.398;5.466;2023-09-12T01:01:25;101138.69;;;20.73;100.00
9421;BME280;4749;51.398;5.466;2023-09-12T01:03:52;101145.13;;;20.68;100.00
9421;BME280;4749;51.398;5.466;2023-09-12T01:06:24;101147.91;;;20.65;100.00
9421;BME280;4749;51.398;5.466;2023-09-12T01:08:57;101149.81;;;20.61;100.00
9421;BME280;4749;51.398;5.466;2023-09-12T01:11:24;101150.78;;;20.59;100.00
9421;BME280;4749;51.398;5.466;2023-09-12T01:13:52;101140.16;;;20.57;100.00
9421;BME280;4749;51.398;5.466;2023-09-12T01:16:19;101141.03;;;20.58;100.00
9421;BME280;4749;51.398;5.466;2023-09-12T01:18:47;101139.22;;;20.58;100.00
9421;BME280;4749;51.398;5.466;2023-09-12T01:29:59;101145.66;;;20.52;100.00
9421;BME280;4749;51.398;5.466;2023-09-12T01:32:29;101139.44;;;20.52;100.00
9421;BME280;4749;51.398;5.466;2023-09-12T01:34:58;101143.81;;;20.55;100.00
9421;BME280;4749;51.398;5.466;2023-09-12T01:37:25;101137.59;;;20.54;100.00
9421;BME280;4749;51.398;5.466;2023-09-12T01:39:53;101145.59;;;20.54;100.00
9421;BME280;4749;51.398;5.466;2023-09-12T01:42:21;101137.72;;;20.49;100.00
9421;BME280;4749;51.398;5.466;2023-09-12T01:44:52;101144.81;;;20.50;100.00
9421;BME280;4749;51.398;5.466;2023-09-12T01:47:22;101143.94;;;20.50;100.00
9421;BME280;4749;51.398;5.466;2023-09-12T01:49:54;101146.63;;;20.50;100.00
9421;BME280;4749;51.398;5.466;2023-09-12T01:52:22;101147.53;;;20.49;100.00
9421;BME280;4749;51.398;5.466;2023-09-12T01:54:50;101148.41;;;20.49;100.00
9421;BME280;4749;51.398;5.466;2023-09-12T01:57:18;101143.00;;;20.51;100.00
9421;BME280;4749;51.398;5.466;2023-09-12T01:59:49;101134.13;;;20.50;100.00
9421;BME280;4749;51.398;5.466;2023-09-12T02:02:17;101128.75;;;20.52;100.00
9421;BME280;4749;51.398;5.466;2023-09-12T02:07:41;101123.63;;;20.46;100.00
9421;BME280;4749;51.398;5.466;2023-09-12T02:10:09;101121.06;;;20.41;100.00
9421;BME280;4749;51.398;5.466;2023-09-12T02:12:39;101126.56;;;20.37;100.00
9421;BME280;4749;51.398;5.466;2023-09-12T02:15:08;101127.59;;;20.33;100.00
9421;BME280;4749;51.398;5.466;2023-09-12T02:17:35;101128.63;;;20.29;100.00
9421;BME280;4749;51.398;5.466;2023-09-12T02:20:03;101128.75;;;20.24;100.00
9421;BME280;4749;51.398;5.466;2023-09-12T02:22:33;101127.13;;;20.20;100.00
9421;BME280;4749;51.398;5.466;2023-09-12T02:25:02;101129.00;;;20.16;100.00
9421;BME280;4749;51.398;5.466;2023-09-12T02:27:30;101126.50;;;20.12;100.00
9421;BME280;4749;51.398;5.466;2023-09-12T02:29:57;101125.72;;;20.08;100.00
9421;BME280;4749;51.398;5.466;2023-09-12T02:32:24;101124.03;;;20.06;100.00
9421;BME280;4749;51.398;5.466;2023-09-12T02:34:51;101123.25;;;20.02;100.00
9421;BME280;4749;51.398;5.466;2023-09-12T02:37:20;101123.38;;;19.98;100.00
9421;BME280;4749;51.398;5.466;2023-09-12T02:39:47;101124.44;;;19.93;100.00
9421;BME280;4749;51.398;5.466;2023-09-12T02:42:14;101120.91;;;19.91;100.00
9421;BME280;4749;51.398;5.466;2023-09-12T02:44:42;101123.69;;;19.88;100.00
9421;BME280;4749;51.398;5.466;2023-09-12T02:47:09;101133.53;;;19.86;100.00
9421;BME280;4749;51.398;5.466;2023-09-12T02:49:36;101127.41;;;19.83;100.00
9421;BME280;4749;51.398;5.466;2023-09-12T02:52:03;101137.22;;;19.82;100.00
9421;BME280;4749;51.398;5.466;2023-09-12T02:54:31;101138.13;;;19.81;100.00
9421;BME280;4749;51.398;5.466;2023-09-12T02:56:58;101139.94;;;19.81;100.00
9421;BME280;4749;51.398;5.466;2023-09-12T02:59:25;101136.44;;;19.79;100.00
9421;BME280;4749;51.398;5.466;2023-09-12T03:01:52;101153.38;;;19.78;100.00
9421;BME280;4749;51.398;5.466;2023-09-12T03:04:19;101149.84;;;19.77;100.00
9421;BME280;4749;51.398;5.466;2023-09-12T03:06:46;101140.09;;;19.75;100.00
9421;BME280;4749;51.398;5.466;2023-09-12T03:09:14;101141.97;;;19.73;100.00
9421;BME280;4749;51.398;5.466;2023-09-12T03:11:43;101151.75;;;19.72;100.00
9421;BME280;4749;51.398;5.466;2023-09-12T03:14:10;101138.53;;;19.69;100.00
9421;BME280;4749;51.398;5.466;2023-09-12T03:16:37;101135.91;;;19.67;100.00
9421;BME280;4749;51.398;5.466;2023-09-12T03:19:05;101121.81;;;19.62;100.00
9421;BME280;4749;51.398;5.466;2023-09-12T03:21:32;101119.25;;;19.59;100.00
9421;BME280;4749;51.398;5.466;2023-09-12T03:24:00;101121.94;;;19.58;100.00
9421;BME280;4749;51.398;5.466;2023-09-12T03:26:27;101106.88;;;19.55;100.00
9421;BME280;4749;51.398;5.466;2023-09-12T03:28:54;101109.66;;;19.52;100.00
9421;BME280;4749;51.398;5.466;2023-09-12T03:31:21;101113.28;;;19.50;100.00
9421;BME280;4749;51.398;5.466;2023-09-12T03:33:48;101115.13;;;19.48;100.00
9421;BME280;4749;51.398;5.466;2023-09-12T03:36:17;101121.38;;;19.47;100.00
9421;BME280;4749;51.398;5.466;2023-09-12T03:38:45;101114.25;;;19.47;100.00
9421;BME280;4749;51.398;5.466;2023-09-12T03:41:12;101121.38;;;19.47;100.00
9421;BME280;4749;51.398;5.466;2023-09-12T03:43:39;101118.66;;;19.48;100.00
9421;BME280;4749;51.398;5.466;2023-09-12T03:46:06;101120.41;;;19.49;100.00
9421;BME280;4749;51.398;5.466;2023-09-12T03:48:34;101119.47;;;19.50;100.00
9421;BME280;4749;51.398;5.466;2023-09-12T03:51:03;101115.00;;;19.52;100.00
9421;BME280;4749;51.398;5.466;2023-09-12T03:53:31;101122.06;;;19.53;100.00
9421;BME280;4749;51.398;5.466;2023-09-12T03:55:58;101110.47;;;19.54;100.00
9421;BME280;4749;51.398;5.466;2023-09-12T03:58:26;101117.53;;;19.57;100.00
9421;BME280;4749;51.398;5.466;2023-09-12T04:00:53;101113.03;;;19.59;100.00
9421;BME280;4749;51.398;5.466;2023-09-12T04:03:21;101115.66;;;19.60;100.00
9421;BME280;4749;51.398;5.466;2023-09-12T04:05:50;101112.09;;;19.61;100.00
9421;BME280;4749;51.398;5.466;2023-09-12T04:08:17;101120.03;;;19.63;100.00
9421;BME280;4749;51.398;5.466;2023-09-12T04:10:45;101120.91;;;19.63;100.00
9421;BME280;4749;51.398;5.466;2023-09-12T04:13:12;101108.44;;;19.64;100.00
9421;BME280;4749;51.398;5.466;2023-09-12T04:15:39;101107.50;;;19.65;100.00
9421;BME280;4749;51.398;5.466;2023-09-12T04:18:06;101108.44;;;19.64;100.00
9421;BME280;4749;51.398;5.466;2023-09-12T04:20:34;101105.81;;;19.62;100.00
9421;BME280;4749;51.398;5.466;2023-09-12T04:23:02;101114.75;;;19.61;100.00
9421;BME280;4749;51.398;5.466;2023-09-12T04:25:31;101105.88;;;19.61;100.00
9421;BME280;4749;51.398;5.466;2023-09-12T04:27:59;101111.16;;;19.62;100.00
9421;BME280;4749;51.398;5.466;2023-09-12T04:30:26;101110.28;;;19.62;100.00
9421;BME280;4749;51.398;5.466;2023-09-12T04:32:54;101114.69;;;19.63;100.00
9421;BME280;4749;51.398;5.466;2023-09-12T04:35:21;101116.44;;;19.64;100.00
9421;BME280;4749;51.398;5.466;2023-09-12T04:37:49;101125.38;;;19.63;100.00
9421;BME280;4749;51.398;5.466;2023-09-12T04:40:17;101128.03;;;19.63;100.00
9421;BME280;4749;51.398;5.466;2023-09-12T04:42:44;101136.91;;;19.63;100.00
9421;BME280;4749;51.398;5.466;2023-09-12T04:45:11;101132.44;;;19.64;100.00
9421;BME280;4749;51.398;5.466;2023-09-12T04:47:38;101137.78;;;19.64;100.00
9421;BME280;4749;51.398;5.466;2023-09-12T04:50:06;101146.69;;;19.63;100.00
9421;BME280;4749;51.398;5.466;2023-09-12T04:52:33;101140.50;;;19.62;100.00
9421;BME280;4749;51.398;5.466;2023-09-12T04:55:01;101134.28;;;19.62;100.00
9421;BME280;4749;51.398;5.466;2023-09-12T04:57:28;101139.69;;;19.59;100.00
9421;BME280;4749;51.398;5.466;2023-09-12T04:59:58;101136.16;;;19.58;100.00
9421;BME280;4749;51.398;5.466;2023-09-12T05:02:25;101143.28;;;19.58;100.00
9421;BME280;4749;51.398;5.466;2023-09-12T05:04:53;101142.41;;;19.57;100.00
9421;BME280;4749;51.398;5.466;2023-09-12T05:07:20;101139.75;;;19.57;100.00
9421;BME280;4749;51.398;5.466;2023-09-12T05:09:47;101136.22;;;19.57;100.00
9421;BME280;4749;51.398;5.466;2023-09-12T05:12:14;101136.22;;;19.55;100.00
9421;BME280;4749;51.398;5.466;2023-09-12T05:14:41;101135.34;;;19.55;100.00
9421;BME280;4749;51.398;5.466;2023-09-12T05:17:08;101126.44;;;19.56;100.00
9421;BME280;4749;51.398;5.466;2023-09-12T05:19:36;101121.09;;;19.56;100.00
9421;BME280;4749;51.398;5.466;2023-09-12T05:22:03;101117.56;;;19.55;100.00
9421;BME280;4749;51.398;5.466;2023-09-12T05:24:30;101114.00;;;19.56;100.00
9421;BME280;4749;51.398;5.466;2023-09-12T05:26:57;101109.50;;;19.58;100.00
9421;BME280;4749;51.398;5.466;2023-09-12T05:29:25;101101.47;;;19.58;100.00
9421;BME280;4749;51.398;5.466;2023-09-12T05:31:52;101098.81;;;19.58;100.00
9421;BME280;4749;51.398;5.466;2023-09-12T05:34:19;101101.47;;;19.60;100.00
9421;BME280;4749;51.398;5.466;2023-09-12T05:36:49;101107.63;;;19.62;100.00
9421;BME280;4749;51.398;5.466;2023-09-12T05:39:16;101104.03;;;19.63;100.00
9421;BME280;4749;51.398;5.466;2023-09-12T05:41:44;101105.78;;;19.64;100.00
9421;BME280;4749;51.398;5.466;2023-09-12T05:44:11;101112.84;;;19.65;100.00
9421;BME280;4749;51.398;5.466;2023-09-12T05:46:48;101108.38;;;19.65;100.00
9421;BME280;4749;51.398;5.466;2023-09-12T05:49:15;101118.97;;;19.68;100.00
9421;BME280;4749;51.398;5.466;2023-09-12T05:51:42;101124.25;;;19.70;100.00
9421;BME280;4749;51.398;5.466;2023-09-12T05:54:10;101119.84;;;19.69;100.00
9421;BME280;4749;51.398;5.466;2023-09-12T05:56:38;101126.94;;;19.70;100.00
9421;BME280;4749;51.398;5.466;2023-09-12T05:59:06;101124.25;;;19.70;100.00
9421;BME280;4749;51.398;5.466;2023-09-12T06:01:33;101131.41;;;19.70;100.00
9421;BME280;4749;51.398;5.466;2023-09-12T06:04:01;101134.88;;;19.72;100.00
9421;BME280;4749;51.398;5.466;2023-09-12T06:06:28;101132.22;;;19.72;100.00
9421;BME280;4749;51.398;5.466;2023-09-12T06:08:56;101126.81;;;19.73;100.00
9421;BME280;4749;51.398;5.466;2023-09-12T06:11:24;101123.19;;;19.76;100.00
9421;BME280;4749;51.398;5.466;2023-09-12T06:13:52;101118.69;;;19.78;100.00
9421;BME280;4749;51.398;5.466;2023-09-12T06:16:19;101122.19;;;19.80;100.00
9421;BME280;4749;51.398;5.466;2023-09-12T06:18:46;101117.59;;;19.85;100.00
9421;BME280;4749;51.398;5.466;2023-09-12T06:21:15;101117.47;;;19.88;100.00
9421;BME280;4749;51.398;5.466;2023-09-12T06:23:42;101133.31;;;19.94;100.00
9421;BME280;4749;51.398;5.466;2023-09-12T06:26:09;101129.53;;;20.00;100.00
9421;BME280;4749;51.398;5.466;2023-09-12T06:28:37;101133.88;;;20.04;100.00
9421;BME280;4749;51.398;5.466;2023-09-12T06:31:08;101138.13;;;20.09;100.00
9421;BME280;4749;51.398;5.466;2023-09-12T06:33:37;101156.63;;;20.15;100.00
9421;BME280;4749;51.398;5.466;2023-09-12T06:36:05;101153.78;;;20.21;100.00
9421;BME280;4749;51.398;5.466;2023-09-12T06:38:32;101158.94;;;20.26;100.00
9421;BME280;4749;51.398;5.466;2023-09-12T06:40:59;101160.59;;;20.30;100.00
9421;BME280;4749;51.398;5.466;2023-09-12T06:43:26;101160.50;;;20.33;100.00
9421;BME280;4749;51.398;5.466;2023-09-12T06:45:54;101170.09;;;20.39;100.00
9421;BME280;4749;51.398;5.466;2023-09-12T06:48:21;101168.19;;;20.42;100.00
9421;BME280;4749;51.398;5.466;2023-09-12T06:50:48;101171.56;;;20.49;100.00
9421;BME280;4749;51.398;5.466;2023-09-12T06:53:20;101172.31;;;20.54;100.00
9421;BME280;4749;51.398;5.466;2023-09-12T06:55:47;101165.78;;;20.63;100.00
9421;BME280;4749;51.398;5.466;2023-09-12T06:58:14;101168.25;;;20.69;100.00
9421;BME280;4749;51.398;5.466;2023-09-12T07:00:41;101166.41;;;20.71;100.00
9421;BME280;4749;51.398;5.466;2023-09-12T07:03:08;101160.94;;;20.74;100.00
9421;BME280;4749;51.398;5.466;2023-09-12T07:05:41;101162.59;;;20.78;100.00
9421;BME280;4749;51.398;5.466;2023-09-12T07:08:10;101157.03;;;20.84;100.00
9421;BME280;4749;51.398;5.466;2023-09-12T07:10:37;101152.19;;;20.95;100.00
9421;BME280;4749;51.398;5.466;2023-09-12T07:13:10;101142.44;;;21.18;100.00
9421;BME280;4749;51.398;5.466;2023-09-12T07:15:37;101140.94;;;21.35;100.00
9421;BME280;4749;51.398;5.466;2023-09-12T07:18:05;101144.63;;;21.56;100.00
9421;BME280;4749;51.398;5.466;2023-09-12T07:20:35;101149.97;;;21.80;100.00
9421;BME280;4749;51.398;5.466;2023-09-12T07:23:03;101150.59;;;21.86;100.00
9421;BME280;4749;51.398;5.466;2023-09-12T07:25:30;101152.38;;;21.86;100.00
9421;BME280;4749;51.398;5.466;2023-09-12T07:27:57;101157.72;;;21.86;100.00
9421;BME280;4749;51.398;5.466;2023-09-12T07:30:24;101155.03;;;21.86;100.00
9421;BME280;4749;51.398;5.466;2023-09-12T07:32:52;101151.25;;;21.91;100.00
9421;BME280;4749;51.398;5.466;2023-09-12T07:35:19;101154.38;;;22.03;100.00
9421;BME280;4749;51.398;5.466;2023-09-12T07:37:47;101153.34;;;22.07;100.00
9421;BME280;4749;51.398;5.466;2023-09-12T07:40:14;101147.78;;;22.13;100.00
9421;BME280;4749;51.398;5.466;2023-09-12T07:42:42;101153.88;;;22.16;100.00
9421;BME280;4749;51.398;5.466;2023-09-12T07:45:09;101149.31;;;22.18;100.00
9421;BME280;4749;51.398;5.466;2023-09-12T07:47:37;101150.94;;;22.23;100.00
9421;BME280;4749;51.398;5.466;2023-09-12T07:50:05;101147.16;;;22.28;100.00
9421;BME280;4749;51.398;5.466;2023-09-12T07:52:33;101140.28;;;22.43;100.00
9421;BME280;4749;51.398;5.466;2023-09-12T07:55:05;101135.59;;;22.48;100.00
9421;BME280;4749;51.398;5.466;2023-09-12T07:57:32;101141.69;;;22.52;100.00
9421;BME280;4749;51.398;5.466;2023-09-12T08:00:01;101143.44;;;22.53;100.00
9421;BME280;4749;51.398;5.466;2023-09-12T08:02:31;101151.44;;;22.54;100.00
9421;BME280;4749;51.398;5.466;2023-09-12T08:04:58;101145.75;;;22.62;100.00
9421;BME280;4749;51.398;5.466;2023-09-12T08:07:26;101148.16;;;22.68;100.00
9421;BME280;4749;51.398;5.466;2023-09-12T08:09:56;101152.31;;;22.75;100.00
9421;BME280;4749;51.398;5.466;2023-09-12T08:12:27;101166.22;;;22.85;100.00
9421;BME280;4749;51.398;5.466;2023-09-12T08:14:55;101165.78;;;22.95;100.00
9421;BME280;4749;51.398;5.466;2023-09-12T08:17:23;101175.81;;;23.11;100.00
9421;BME280;4749;51.398;5.466;2023-09-12T08:19:50;101190.88;;;23.34;100.00
9421;BME280;4749;51.398;5.466;2023-09-12T08:22:17;101192.25;;;23.63;100.00
9421;BME280;4749;51.398;5.466;2023-09-12T08:24:45;101186.56;;;23.89;100.00
9421;BME280;4749;51.398;5.466;2023-09-12T08:27:13;101187.84;;;24.18;100.00
9421;BME280;4749;51.398;5.466;2023-09-12T08:29:40;101182.81;;;24.48;100.00
9421;BME280;4749;51.398;5.466;2023-09-12T08:32:09;101183.94;;;24.79;100.00
9421;BME280;4749;51.398;5.466;2023-09-12T08:34:36;101188.00;;;25.05;100.00
9421;BME280;4749;51.398;5.466;2023-09-12T08:37:03;101186.72;;;25.29;100.00
9421;BME280;4749;51.398;5.466;2023-09-12T08:39:42;101187.72;;;25.44;100.00
9421;BME280;4749;51.398;5.466;2023-09-12T08:42:15;101192.16;;;25.45;100.00
9421;BME280;4749;51.398;5.466;2023-09-12T08:44:43;101188.41;;;25.47;100.00
9421;BME280;4749;51.398;5.466;2023-09-12T08:47:11;101196.06;;;25.55;100.00
9421;BME280;4749;51.398;5.466;2023-09-12T08:49:39;101202.97;;;25.61;100.00
9421;BME280;4749;51.398;5.466;2023-09-12T08:52:10;101212.00;;;25.60;100.00
9421;BME280;4749;51.398;5.466;2023-09-12T08:54:37;101206.34;;;25.64;100.00
9421;BME280;4749;51.398;5.466;2023-09-12T08:57:08;101194.94;;;25.76;100.00
9421;BME280;4749;51.398;5.466;2023-09-12T08:59:37;101181.94;;;26.00;100.00
9421;BME280;4749;51.398;5.466;2023-09-12T09:02:08;101170.91;;;26.05;100.00
9421;BME280;4749;51.398;5.466;2023-09-12T09:04:38;101164.56;;;25.90;100.00
9421;BME280;4749;51.398;5.466;2023-09-12T09:07:05;101172.16;;;25.66;100.00
9421;BME280;4749;51.398;5.466;2023-09-12T09:09:33;101165.00;;;25.49;100.00
9421;BME280;4749;51.398;5.466;2023-09-12T09:12:00;101167.47;;;25.37;100.00
9421;BME280;4749;51.398;5.466;2023-09-12T09:14:29;101166.16;;;25.28;100.00
9421;BME280;4749;51.398;5.466;2023-09-12T09:16:58;101162.31;;;25.16;100.00
9421;BME280;4749;51.398;5.466;2023-09-12T09:19:42;101156.28;;;25.11;100.00
9421;BME280;4749;51.398;5.466;2023-09-12T09:22:09;101165.31;;;25.10;100.00
9421;BME280;4749;51.398;5.466;2023-09-12T09:24:36;101161.75;;;25.10;100.00
9421;BME280;4749;51.398;5.466;2023-09-12T09:27:04;101151.94;;;25.09;100.00
9421;BME280;4749;51.398;5.466;2023-09-12T09:29:31;101156.53;;;25.07;100.00
9421;BME280;4749;51.398;5.466;2023-09-12T09:32:01;101149.34;;;25.07;100.00
9421;BME280;4749;51.398;5.466;2023-09-12T09:34:29;101155.94;;;25.00;100.00
9421;BME280;4749;51.398;5.466;2023-09-12T09:36:57;101154.22;;;24.82;100.00
9421;BME280;4749;51.398;5.466;2023-09-12T09:39:28;101152.53;;;24.79;100.00
9421;BME280;4749;51.398;5.466;2023-09-12T09:41:56;101156.34;;;24.92;100.00
9421;BME280;4749;51.398;5.466;2023-09-12T09:44:26;101156.69;;;25.04;100.00
9421;BME280;4749;51.398;5.466;2023-09-12T09:47:01;101153.59;;;25.11;100.00
9421;BME280;4749;51.398;5.466;2023-09-12T09:49:33;101157.59;;;25.20;100.00
9421;BME280;4749;51.398;5.466;2023-09-12T09:52:04;101163.63;;;25.25;100.00
9421;BME280;4749;51.398;5.466;2023-09-12T09:54:32;101160.53;;;25.33;100.00
9421;BME280;4749;51.398;5.466;2023-09-12T09:57:00;101160.13;;;25.40;100.00
9421;BME280;4749;51.398;5.466;2023-09-12T09:59:28;101155.50;;;25.42;100.00
9421;BME280;4749;51.398;5.466;2023-09-12T10:01:59;101153.59;;;25.44;100.00
9421;BME280;4749;51.398;5.466;2023-09-12T10:04:28;101149.63;;;25.51;100.00
9421;BME280;4749;51.398;5.466;2023-09-12T10:06:57;101146.44;;;25.61;100.00
9421;BME280;4749;51.398;5.466;2023-09-12T10:09:33;101150.63;;;25.66;100.00
9421;BME280;4749;51.398;5.466;2023-09-12T10:12:08;101146.78;;;25.70;100.00
9421;BME280;4749;51.398;5.466;2023-09-12T10:14:39;101150.81;;;25.79;100.00
9421;BME280;4749;51.398;5.466;2023-09-12T10:17:06;101152.03;;;25.89;100.00
9421;BME280;4749;51.398;5.466;2023-09-12T10:19:39;101151.88;;;25.92;100.00
9421;BME280;4749;51.398;5.466;2023-09-12T10:22:20;101137.97;;;25.84;100.00
9421;BME280;4749;51.398;5.466;2023-09-12T10:24:49;101134.22;;;25.87;100.00
9421;BME280;4749;51.398;5.466;2023-09-12T10:27:19;101139.53;;;26.04;100.00
9421;BME280;4749;51.398;5.466;2023-09-12T10:29:48;101124.13;;;26.22;100.00
9421;BME280;4749;51.398;5.466;2023-09-12T10:32:17;101122.81;;;26.29;100.00
9421;BME280;4749;51.398;5.466;2023-09-12T10:34:46;101129.59;;;26.20;100.00
9421;BME280;4749;51.398;5.466;2023-09-12T10:37:16;101127.34;;;26.44;100.00
9421;BME280;4749;51.398;5.466;2023-09-12T10:39:44;101140.53;;;26.79;100.00
9421;BME280;4749;51.398;5.466;2023-09-12T10:42:13;101151.38;;;26.93;100.00
9421;BME280;4749;51.398;5.466;2023-09-12T10:44:44;101138.28;;;27.01;100.00
9421;BME280;4749;51.398;5.466;2023-09-12T10:47:14;101136.13;;;27.08;100.00
9421;BME280;4749;51.398;5.466;2023-09-12T10:49:44;101139.97;;;27.18;100.00
9421;BME280;4749;51.398;5.466;2023-09-12T10:52:27;101134.38;;;27.21;100.00
9421;BME280;4749;51.398;5.466;2023-09-12T10:54:56;101128.97;;;27.21;100.00
9421;BME280;4749;51.398;5.466;2023-09-12T10:57:23;101135.53;;;27.31;100.00
9421;BME280;4749;51.398;5.466;2023-09-12T11:00:17;101142.56;;;27.48;100.00
9421;BME280;4749;51.398;5.466;2023-09-12T11:02:45;101133.88;;;27.57;100.00
9421;BME280;4749;51.398;5.466;2023-09-12T11:07:59;101128.69;;;27.54;100.00
9421;BME280;4749;51.398;5.466;2023-09-12T11:10:28;101124.72;;;27.74;100.00
9421;BME280;4749;51.398;5.466;2023-09-12T11:12:57;101121.88;;;28.04;100.00
9421;BME280;4749;51.398;5.466;2023-09-12T11:15:26;101128.63;;;28.38;100.00
9421;BME280;4749;51.398;5.466;2023-09-12T11:18:05;101117.88;;;28.64;100.00
9421;BME280;4749;51.398;5.466;2023-09-12T11:21:08;101113.69;;;28.85;100.00
9421;BME280;4749;51.398;5.466;2023-09-12T11:23:36;101126.50;;;28.96;100.00
9421;BME280;4749;51.398;5.466;2023-09-12T11:26:05;101123.13;;;28.92;100.00
9421;BME280;4749;51.398;5.466;2023-09-12T11:28:33;101119.28;;;28.69;100.00
9421;BME280;4749;51.398;5.466;2023-09-12T11:31:00;101125.22;;;28.62;100.00
9421;BME280;4749;51.398;5.466;2023-09-12T11:33:28;101126.50;;;28.43;100.00
9421;BME280;4749;51.398;5.466;2023-09-12T11:35:56;101128.75;;;28.22;100.00
9421;BME280;4749;51.398;5.466;2023-09-12T11:38:30;101124.06;;;28.12;100.00
9421;BME280;4749;51.398;5.466;2023-09-12T11:40:59;101133.69;;;28.16;100.00
9421;BME280;4749;51.398;5.466;2023-09-12T11:43:28;101132.06;;;28.13;100.00
9421;BME280;4749;51.398;5.466;2023-09-12T11:45:57;101130.38;;;28.25;100.00
9421;BME280;4749;51.398;5.466;2023-09-12T11:48:24;101123.38;;;28.62;100.00
9421;BME280;4749;51.398;5.466;2023-09-12T11:50:56;101127.97;;;28.87;100.00
9421;BME280;4749;51.398;5.466;2023-09-12T11:53:28;101124.66;;;29.09;100.00
9421;BME280;4749;51.398;5.466;2023-09-12T11:55:59;101130.84;;;29.11;100.00
9421;BME280;4749;51.398;5.466;2023-09-12T11:58:27;101136.78;;;29.16;100.00
9421;BME280;4749;51.398;5.466;2023-09-12T12:00:57;101127.59;;;29.06;100.00
9421;BME280;4749;51.398;5.466;2023-09-12T12:03:27;101138.63;;;29.03;100.00
9421;BME280;4749;51.398;5.466;2023-09-12T12:05:56;101136.13;;;29.25;100.00
9421;BME280;4749;51.398;5.466;2023-09-12T12:08:24;101140.34;;;29.42;100.00
9421;BME280;4749;51.398;5.466;2023-09-12T12:10:56;101138.53;;;29.55;100.00
9421;BME280;4749;51.398;5.466;2023-09-12T12:13:25;101125.41;;;29.62;100.00
9421;BME280;4749;51.398;5.466;2023-09-12T12:15:56;101127.66;;;29.68;100.00
9421;BME280;4749;51.398;5.466;2023-09-12T12:18:24;101130.16;;;29.71;100.00
9421;BME280;4749;51.398;5.466;2023-09-12T12:20:52;101129.16;;;29.72;100.00
9421;BME280;4749;51.398;5.466;2023-09-12T12:23:19;101124.84;;;29.69;100.00
9421;BME280;4749;51.398;5.466;2023-09-12T12:25:46;101124.75;;;29.58;100.00
9421;BME280;4749;51.398;5.466;2023-09-12T12:28:13;101112.06;;;29.46;100.00
9421;BME280;4749;51.398;5.466;2023-09-12T12:30:43;101115.88;;;29.43;100.00
9421;BME280;4749;51.398;5.466;2023-09-12T12:33:11;101114.78;;;29.46;100.00
9421;BME280;4749;51.398;5.466;2023-09-12T12:36:05;101107.63;;;29.58;100.00
9421;BME280;4749;51.398;5.466;2023-09-12T12:38:37;101109.72;;;29.54;100.00
9421;BME280;4749;51.398;5.466;2023-09-12T12:41:29;101096.81;;;29.32;100.00
9421;BME280;4749;51.398;5.466;2023-09-12T12:44:15;101097.69;;;29.20;100.00
9421;BME280;4749;51.398;5.466;2023-09-12T12:46:53;101092.81;;;29.38;100.00
9421;BME280;4749;51.398;5.466;2023-09-12T12:49:21;101092.50;;;29.30;100.00
9421;BME280;4749;51.398;5.466;2023-09-12T12:51:50;101087.09;;;29.04;100.00
9421;BME280;4749;51.398;5.466;2023-09-12T12:54:22;101084.69;;;28.87;100.00
9421;BME280;4749;51.398;5.466;2023-09-12T12:56:50;101092.19;;;28.96;100.00
9421;BME280;4749;51.398;5.466;2023-09-12T12:59:17;101088.28;;;29.13;100.00
9421;BME280;4749;51.398;5.466;2023-09-12T13:01:44;101090.22;;;29.24;100.00
9421;BME280;4749;51.398;5.466;2023-09-12T13:04:11;101086.22;;;29.29;100.00
9421;BME280;4749;51.398;5.466;2023-09-12T13:06:39;101095.06;;;29.31;100.00
9421;BME280;4749;51.398;5.466;2023-09-12T13:09:07;101085.72;;;29.48;100.00
9421;BME280;4749;51.398;5.466;2023-09-12T13:11:36;101088.97;;;29.66;100.00
9421;BME280;4749;51.398;5.466;2023-09-12T13:14:04;101081.31;;;29.84;100.00
9421;BME280;4749;51.398;5.466;2023-09-12T13:16:39;101087.03;;;29.92;100.00
9421;BME280;4749;51.398;5.466;2023-09-12T13:19:09;101086.00;;;29.82;100.00
9421;BME280;4749;51.398;5.466;2023-09-12T13:21:38;101088.66;;;29.70;100.00
9421;BME280;4749;51.398;5.466;2023-09-12T13:24:06;101079.78;;;29.56;100.00